Time;durP1;ratioP1;P1;durP2;ratioP2;P2;SDS_P1;SDS_P2;PMS_P1;PMS_P2;Temp;Humidity;BMP_temperature;BMP_pressure;BME280_temperature;BME280_humidity;BME280_pressure;Samples;Min_cycle;Max_cycle;Signal;HPM_P1;HPM_P2
2022/11/14 00:01:31;;;;;;;194.27;34.00;;;4.00;99.90;;;;;;7607804;19;20014;-76
2022/11/14 00:04:22;;;;;;;241.15;39.83;;;3.90;99.90;;;;;;7612612;19;20019;-76
2022/11/14 00:07:19;;;;;;;161.25;28.88;;;3.90;99.90;;;;;;7609734;19;20026;-76
2022/11/14 00:10:11;;;;;;;350.33;47.00;;;3.90;99.90;;;;;;7597956;19;20021;-75
2022/11/14 00:13:01;;;;;;;165.43;28.10;;;3.90;99.90;;;;;;7614879;19;20452;-76
2022/11/14 00:15:55;;;;;;;238.85;38.97;;;3.80;99.90;;;;;;7614056;19;20449;-77
2022/11/14 00:18:46;;;;;;;151.23;29.58;;;3.80;99.90;;;;;;7615142;19;20025;-76
2022/11/14 00:21:37;;;;;;;268.60;43.70;;;3.80;99.90;;;;;;7610829;19;20014;-76
2022/11/14 00:24:28;;;;;;;288.05;42.03;;;3.80;99.90;;;;;;7615325;19;20014;-76
2022/11/14 00:27:19;;;;;;;95.10;25.90;;;3.80;99.90;;;;;;7610109;19;20458;-76
2022/11/14 00:30:09;;;;;;;197.88;31.27;;;3.80;99.90;;;;;;7601579;19;20911;-77
2022/11/14 00:33:00;;;;;;;167.40;28.15;;;3.70;99.90;;;;;;7611090;19;20842;-77
2022/11/14 00:35:53;;;;;;;170.80;26.80;;;3.80;99.90;;;;;;7616114;19;20018;-76
2022/11/14 00:38:43;;;;;;;197.93;28.75;;;3.80;99.90;;;;;;7613604;19;20023;-76
2022/11/14 00:41:34;;;;;;;122.22;25.92;;;3.80;99.90;;;;;;7620025;19;20046;-76
2022/11/14 00:44:24;;;;;;;199.98;34.80;;;3.90;99.90;;;;;;7612640;19;20382;-77
2022/11/14 00:47:14;;;;;;;161.77;30.55;;;3.80;99.90;;;;;;7605021;19;20371;-76
2022/11/14 00:50:06;;;;;;;225.35;29.77;;;3.90;99.90;;;;;;7603542;19;20018;-76
2022/11/14 00:52:57;;;;;;;146.77;27.63;;;3.80;99.90;;;;;;7618412;19;21064;-76
2022/11/14 00:55:47;;;;;;;173.73;28.75;;;3.80;99.90;;;;;;7605412;19;20923;-76
2022/11/14 00:58:38;;;;;;;299.70;50.95;;;3.80;99.90;;;;;;7606453;19;20607;-75
2022/11/14 01:01:29;;;;;;;157.73;28.50;;;3.80;99.90;;;;;;7604515;19;20206;-76
2022/11/14 01:04:20;;;;;;;128.68;27.00;;;3.80;99.90;;;;;;7619335;19;20019;-75
2022/11/14 01:07:10;;;;;;;271.08;50.05;;;3.80;99.90;;;;;;7615163;19;20010;-76
2022/11/14 01:10:01;;;;;;;119.97;23.20;;;3.80;99.90;;;;;;7613109;19;20039;-75
2022/11/14 01:12:52;;;;;;;179.75;24.17;;;3.80;99.90;;;;;;7607768;19;20014;-75
2022/11/14 01:15:46;;;;;;;435.83;46.90;;;3.70;99.90;;;;;;7605150;19;20502;-75
2022/11/14 01:18:38;;;;;;;73.30;17.83;;;3.60;99.90;;;;;;7615947;19;20022;-76
2022/11/14 01:21:29;;;;;;;345.58;38.55;;;3.50;99.90;;;;;;7601551;19;20026;-77
2022/11/14 01:24:20;;;;;;;256.50;27.77;;;3.40;99.90;;;;;;7604256;19;20023;-74
2022/11/14 01:27:11;;;;;;;432.20;40.65;;;3.20;99.90;;;;;;7611379;19;20010;-76
2022/11/14 01:30:03;;;;;;;433.08;32.17;;;3.20;99.90;;;;;;7609962;19;20021;-76
2022/11/14 01:32:53;;;;;;;277.38;31.15;;;3.20;99.90;;;;;;7615072;19;20455;-75
2022/11/14 01:35:44;;;;;;;372.02;41.13;;;3.10;99.90;;;;;;7609496;19;20045;-75
2022/11/14 01:38:36;;;;;;;133.93;26.65;;;2.90;99.90;;;;;;7621230;19;20154;-76
2022/11/14 01:41:27;;;;;;;50.38;17.35;;;2.90;99.90;;;;;;7622224;19;21167;-76
2022/11/14 01:44:37;;;;;;;198.32;27.00;;;2.90;99.90;;;;;;7605519;19;20026;-76
2022/11/14 01:47:31;;;;;;;52.97;20.98;;;3.00;99.90;;;;;;7621863;19;20018;-76
2022/11/14 01:50:21;;;;;;;225.38;36.05;;;3.00;99.90;;;;;;7611720;19;20018;-76
2022/11/14 01:53:12;;;;;;;100.03;22.42;;;3.10;99.90;;;;;;7606927;19;20018;-77
2022/11/14 01:56:06;;;;;;;141.45;28.70;;;3.20;99.90;;;;;;7612898;19;20010;-76
2022/11/14 01:59:05;;;;;;;146.85;33.75;;;3.20;99.90;;;;;;7604236;19;20029;-76
2022/11/14 02:02:00;;;;;;;127.47;29.85;;;3.20;99.90;;;;;;7608411;19;20356;-76
2022/11/14 02:04:56;;;;;;;;;;;3.10;99.90;;;;;;7615405;19;20014;-75
2022/11/14 02:07:47;;;;;;;122.38;24.23;;;3.10;99.90;;;;;;7607835;19;19919;-75
2022/11/14 02:10:37;;;;;;;83.03;25.90;;;3.00;99.90;;;;;;7602895;19;20015;-76
2022/11/14 02:13:28;;;;;;;51.35;17.58;;;2.90;99.90;;;;;;7598888;19;20054;-77
2022/11/14 02:16:21;;;;;;;67.90;18.75;;;3.00;99.90;;;;;;7608748;19;20118;-76
2022/11/14 02:19:14;;;;;;;63.00;17.20;;;3.00;99.90;;;;;;7610642;19;20033;-77
2022/11/14 02:22:05;;;;;;;63.72;20.38;;;3.10;99.90;;;;;;7607809;19;20022;-75
2022/11/14 02:24:55;;;;;;;143.85;31.10;;;3.00;99.90;;;;;;7608581;19;20018;-76
2022/11/14 02:27:50;;;;;;;32.35;15.98;;;3.00;99.90;;;;;;7605567;19;20039;-76
2022/11/14 02:30:41;;;;;;;60.30;21.58;;;3.10;99.90;;;;;;7610052;19;20014;-75
2022/11/14 02:33:31;;;;;;;36.08;18.05;;;3.10;99.90;;;;;;7608832;19;20019;-75
2022/11/14 02:36:22;;;;;;;38.90;16.92;;;3.00;99.90;;;;;;7606615;19;20022;-75
2022/11/14 02:39:12;;;;;;;42.28;14.70;;;3.00;99.90;;;;;;7603783;19;20014;-76
2022/11/14 02:42:03;;;;;;;35.25;15.25;;;3.00;99.90;;;;;;7603569;19;20425;-75
2022/11/14 02:44:53;;;;;;;82.22;18.08;;;2.90;99.90;;;;;;7604755;19;20346;-76
2022/11/14 02:47:44;;;;;;;46.17;18.08;;;2.90;99.90;;;;;;7607346;19;20026;-76
2022/11/14 02:50:35;;;;;;;26.42;14.13;;;2.90;99.90;;;;;;7608656;19;20019;-76
2022/11/14 02:53:25;;;;;;;98.07;22.15;;;2.90;99.90;;;;;;7594794;19;20011;-76
2022/11/14 02:56:17;;;;;;;52.65;17.98;;;2.90;99.90;;;;;;7575108;19;20488;-76
2022/11/14 02:59:10;;;;;;;51.83;16.85;;;2.90;99.90;;;;;;7602778;19;20015;-76
2022/11/14 03:02:00;;;;;;;82.40;23.08;;;2.90;99.90;;;;;;7590019;19;20368;-76
2022/11/14 03:04:51;;;;;;;125.07;25.38;;;2.90;99.90;;;;;;7607882;19;20015;-74
2022/11/14 03:07:43;;;;;;;53.15;14.20;;;2.90;99.90;;;;;;7601498;19;20025;-75
2022/11/14 03:10:33;;;;;;;91.20;16.52;;;2.90;99.90;;;;;;7611980;19;20011;-76
2022/11/14 03:13:28;;;;;;;66.28;17.08;;;3.00;99.90;;;;;;7593516;19;20629;-75
2022/11/14 03:16:24;;;;;;;131.25;18.42;;;3.00;99.90;;;;;;7611145;19;20101;-75
2022/11/14 03:19:18;;;;;;;124.00;17.25;;;2.90;99.90;;;;;;7602240;19;20388;-75
2022/11/14 03:22:08;;;;;;;295.83;28.45;;;2.90;99.90;;;;;;7601917;19;20039;-75
2022/11/14 03:24:59;;;;;;;160.15;19.50;;;3.00;99.90;;;;;;7593589;19;20948;-76
2022/11/14 03:27:50;;;;;;;99.90;15.45;;;2.90;99.90;;;;;;7567383;19;20022;-74
2022/11/14 03:30:41;;;;;;;41.05;12.85;;;3.00;99.90;;;;;;7598721;19;20018;-75
2022/11/14 03:33:32;;;;;;;108.95;17.90;;;3.00;99.90;;;;;;7605038;19;20026;-75
2022/11/14 03:36:22;;;;;;;228.98;26.50;;;3.00;99.90;;;;;;7596032;19;20014;-76
2022/11/14 03:39:13;;;;;;;85.25;15.85;;;3.10;99.90;;;;;;7589058;19;20022;-77
2022/11/14 03:42:04;;;;;;;279.50;20.73;;;3.00;99.90;;;;;;7591634;19;21089;-75
2022/11/14 03:44:55;;;;;;;220.98;20.13;;;3.00;99.90;;;;;;7599237;19;20014;-75
2022/11/14 03:47:45;;;;;;;121.55;15.20;;;2.90;99.90;;;;;;7598990;19;20022;-75
2022/11/14 03:50:35;;;;;;;53.58;13.93;;;3.00;99.90;;;;;;7603734;19;20015;-75
2022/11/14 03:53:27;;;;;;;87.93;14.85;;;3.00;99.90;;;;;;7596737;19;20046;-76
2022/11/14 03:56:17;;;;;;;173.68;18.73;;;3.00;99.90;;;;;;7611565;19;20018;-76
2022/11/14 03:59:07;;;;;;;150.95;16.42;;;3.00;99.90;;;;;;7618343;19;20098;-76
2022/11/14 04:01:58;;;;;;;138.65;20.92;;;3.10;99.90;;;;;;7602480;19;20041;-76
2022/11/14 04:04:49;;;;;;;74.55;15.27;;;3.00;99.90;;;;;;7601217;19;20022;-75
2022/11/14 04:07:39;;;;;;;89.43;14.23;;;2.90;99.90;;;;;;7608400;19;20018;-76
2022/11/14 04:10:30;;;;;;;47.25;13.82;;;2.90;99.90;;;;;;7598714;19;20037;-76
2022/11/14 04:13:21;;;;;;;219.32;22.60;;;2.90;99.90;;;;;;7607406;19;20014;-76
2022/11/14 04:16:11;;;;;;;64.10;14.35;;;2.70;99.90;;;;;;7611599;19;20018;-76
2022/11/14 04:19:02;;;;;;;52.65;14.07;;;2.70;99.90;;;;;;7613544;19;20043;-76
2022/11/14 04:21:56;;;;;;;57.22;12.80;;;2.70;99.90;;;;;;7601461;19;20051;-76
2022/11/14 04:24:46;;;;;;;51.58;14.40;;;2.80;99.90;;;;;;7613221;19;20530;-75
2022/11/14 04:27:37;;;;;;;116.90;17.27;;;2.70;99.90;;;;;;7612301;19;20022;-77
2022/11/14 04:30:27;;;;;;;53.13;12.30;;;2.70;99.90;;;;;;7603830;19;20685;-76
2022/11/14 04:33:24;;;;;;;91.40;18.48;;;2.70;99.90;;;;;;7612434;19;20014;-76
2022/11/14 04:36:14;;;;;;;31.73;11.95;;;2.50;99.90;;;;;;7611173;19;20029;-75
2022/11/14 04:39:05;;;;;;;56.33;17.40;;;2.50;99.90;;;;;;7610575;19;20014;-76
2022/11/14 04:41:56;;;;;;;42.78;13.43;;;2.50;99.90;;;;;;7608370;19;20022;-76
2022/11/14 04:44:46;;;;;;;25.10;11.18;;;2.40;99.90;;;;;;7613364;19;20030;-76
2022/11/14 04:47:39;;;;;;;49.33;12.45;;;2.50;99.90;;;;;;7617038;19;20078;-75
2022/11/14 04:50:30;;;;;;;49.55;18.55;;;2.50;99.90;;;;;;7607807;19;20014;-75
2022/11/14 04:53:21;;;;;;;17.83;11.02;;;2.40;99.90;;;;;;7597130;19;20838;-76
2022/11/14 04:56:11;;;;;;;25.70;11.18;;;2.40;99.90;;;;;;7609613;19;20109;-76
2022/11/14 04:59:02;;;;;;;66.05;14.60;;;2.30;99.90;;;;;;7611478;19;20010;-76
2022/11/14 05:01:53;;;;;;;169.85;22.65;;;2.30;99.90;;;;;;7609074;19;20022;-76
2022/11/14 05:04:46;;;;;;;58.17;15.45;;;2.20;99.90;;;;;;7612559;19;20837;-76
2022/11/14 05:07:36;;;;;;;38.35;13.35;;;2.20;99.90;;;;;;7597429;19;20018;-75
2022/11/14 05:10:27;;;;;;;87.85;16.27;;;2.20;99.90;;;;;;7610367;19;20052;-77
2022/11/14 05:13:18;;;;;;;70.57;16.35;;;2.10;99.90;;;;;;7613481;19;20599;-77
2022/11/14 05:16:09;;;;;;;24.13;13.02;;;2.20;99.90;;;;;;7612843;19;20022;-76
2022/11/14 05:19:00;;;;;;;27.48;13.45;;;2.10;99.90;;;;;;7607019;19;20023;-76
2022/11/14 05:21:50;;;;;;;36.95;15.10;;;2.10;99.90;;;;;;7598084;19;20014;-75
2022/11/14 05:24:41;;;;;;;26.17;13.75;;;2.10;99.90;;;;;;7611362;19;20026;-76
2022/11/14 05:27:32;;;;;;;29.42;15.23;;;2.20;99.90;;;;;;7587171;19;20478;-74
2022/11/14 05:30:23;;;;;;;47.25;15.07;;;2.10;99.90;;;;;;7572629;19;20021;-75
2022/11/14 05:33:14;;;;;;;41.63;15.20;;;2.10;99.90;;;;;;7588156;19;20025;-75
2022/11/14 05:36:07;;;;;;;59.72;17.30;;;2.10;99.90;;;;;;7559121;19;20642;-75
2022/11/14 05:38:58;;;;;;;29.73;13.88;;;2.20;99.90;;;;;;7595980;19;20999;-75
2022/11/14 05:41:49;;;;;;;21.40;12.43;;;2.10;99.90;;;;;;7564283;19;20023;-75
2022/11/14 05:44:39;;;;;;;32.90;11.75;;;2.10;99.90;;;;;;7590062;19;20015;-74
2022/11/14 05:47:29;;;;;;;19.10;11.63;;;2.20;99.90;;;;;;7587087;19;20040;-76
2022/11/14 05:50:20;;;;;;;18.75;11.20;;;2.10;99.90;;;;;;7583582;19;20018;-74
2022/11/14 05:53:11;;;;;;;21.38;11.30;;;2.10;99.90;;;;;;7590506;19;20041;-75
2022/11/14 05:56:04;;;;;;;15.55;9.93;;;2.10;99.90;;;;;;7569779;19;20018;-75
2022/11/14 05:58:54;;;;;;;15.05;9.30;;;2.00;99.90;;;;;;7553961;19;20037;-74
2022/11/14 06:01:45;;;;;;;14.48;9.10;;;2.00;99.90;;;;;;7576883;19;20022;-74
2022/11/14 06:04:36;;;;;;;21.08;10.85;;;1.90;99.90;;;;;;7564313;19;20162;-75
2022/11/14 06:07:27;;;;;;;14.70;9.30;;;1.90;99.90;;;;;;7589804;19;20044;-76
2022/11/14 06:10:18;;;;;;;14.95;9.50;;;1.90;99.90;;;;;;7602505;19;20013;-76
2022/11/14 06:13:08;;;;;;;22.42;11.32;;;1.90;99.90;;;;;;7576834;19;20022;-76
2022/11/14 06:16:01;;;;;;;15.65;9.75;;;1.80;99.90;;;;;;7589825;19;20014;-77
2022/11/14 06:18:52;;;;;;;16.50;11.18;;;1.80;99.90;;;;;;7601741;19;20029;-76
2022/11/14 06:21:43;;;;;;;19.15;10.68;;;1.80;99.90;;;;;;7589960;19;20019;-76
2022/11/14 06:24:35;;;;;;;17.88;10.18;;;1.70;99.90;;;;;;7571705;19;20625;-76
2022/11/14 06:27:25;;;;;;;18.45;11.38;;;1.80;99.90;;;;;;7608083;19;20035;-77
2022/11/14 06:30:16;;;;;;;18.38;11.40;;;1.90;99.90;;;;;;7597356;19;20648;-76
2022/11/14 06:33:07;;;;;;;17.55;10.52;;;1.90;99.90;;;;;;7573681;19;21022;-77
2022/11/14 06:36:03;;;;;;;18.15;10.93;;;2.00;99.90;;;;;;7568683;19;20014;-77
2022/11/14 06:38:54;;;;;;;16.88;10.50;;;2.00;99.90;;;;;;7617421;19;20011;-77
2022/11/14 06:41:45;;;;;;;16.08;10.35;;;2.00;99.90;;;;;;7622890;19;20027;-77
2022/11/14 06:44:35;;;;;;;13.88;9.50;;;2.10;99.90;;;;;;7621554;19;20010;-76
2022/11/14 06:47:26;;;;;;;19.77;9.75;;;2.10;99.90;;;;;;7622225;19;20014;-79
2022/11/14 06:50:16;;;;;;;16.92;10.15;;;2.10;99.90;;;;;;7625221;19;20380;-76
2022/11/14 06:53:07;;;;;;;23.40;11.65;;;2.00;99.90;;;;;;7630401;19;20044;-76
2022/11/14 06:55:59;;;;;;;25.05;13.00;;;2.00;99.90;;;;;;7627045;19;20018;-77
2022/11/14 06:58:50;;;;;;;18.55;10.98;;;1.90;99.90;;;;;;7623479;19;20026;-76
2022/11/14 07:01:40;;;;;;;18.85;11.45;;;1.90;99.90;;;;;;7628768;19;20079;-77
2022/11/14 07:04:31;;;;;;;19.08;13.43;;;2.00;99.90;;;;;;7627176;19;20017;-78
2022/11/14 07:07:22;;;;;;;15.90;10.40;;;2.10;99.90;;;;;;7618816;19;20011;-78
2022/11/14 07:10:12;;;;;;;21.17;10.98;;;2.20;99.90;;;;;;7624755;19;20022;-77
2022/11/14 07:13:03;;;;;;;18.17;10.98;;;2.20;99.90;;;;;;7627658;19;20014;-77
2022/11/14 07:15:54;;;;;;;17.98;10.43;;;2.20;99.90;;;;;;7626139;19;20010;-76
2022/11/14 07:18:45;;;;;;;20.65;11.63;;;2.20;99.90;;;;;;7630378;19;20022;-76
2022/11/14 07:21:36;;;;;;;21.55;12.80;;;2.20;99.90;;;;;;7626581;19;20014;-78
2022/11/14 07:24:27;;;;;;;21.08;13.45;;;2.20;99.90;;;;;;7628254;19;20014;-77
2022/11/14 07:27:17;;;;;;;22.30;11.98;;;2.20;99.90;;;;;;7625176;19;20014;-77
2022/11/14 07:30:09;;;;;;;25.40;14.07;;;2.30;99.90;;;;;;7620131;19;20022;-77
2022/11/14 07:32:59;;;;;;;23.05;11.63;;;2.30;99.90;;;;;;7622705;19;20121;-76
2022/11/14 07:35:50;;;;;;;18.00;11.88;;;2.40;99.90;;;;;;7631082;19;20724;-77
2022/11/14 07:38:41;;;;;;;22.40;11.80;;;2.40;99.90;;;;;;7633493;19;20131;-76
2022/11/14 07:41:32;;;;;;;17.73;11.05;;;2.60;99.90;;;;;;7634769;19;20017;-78
2022/11/14 07:44:22;;;;;;;15.88;10.80;;;2.60;99.90;;;;;;7627849;19;20211;-78
2022/11/14 07:47:13;;;;;;;22.60;12.75;;;2.60;99.90;;;;;;7629734;19;20034;-77
2022/11/14 07:50:04;;;;;;;20.33;11.73;;;2.60;99.90;;;;;;7619410;19;22896;-78
2022/11/14 07:52:56;;;;;;;18.38;11.32;;;2.60;99.90;;;;;;7637777;19;20022;-77
2022/11/14 07:55:47;;;;;;;20.00;12.23;;;2.60;99.90;;;;;;7630357;19;20026;-78
2022/11/14 07:58:39;;;;;;;20.10;12.77;;;2.60;99.90;;;;;;7636808;19;20022;-77
2022/11/14 08:01:30;;;;;;;22.20;13.25;;;2.70;99.90;;;;;;7635028;19;20616;-77
2022/11/14 08:04:21;;;;;;;15.82;10.98;;;2.70;99.90;;;;;;7623294;19;20014;-77
2022/11/14 08:07:12;;;;;;;18.55;11.48;;;2.70;99.90;;;;;;7632905;19;20019;-77
2022/11/14 08:10:03;;;;;;;18.42;11.32;;;2.80;99.90;;;;;;7630791;19;20017;-78
2022/11/14 08:12:59;;;;;;;18.65;11.27;;;2.80;99.90;;;;;;7635987;19;20022;-77
2022/11/14 08:16:10;;;;;;;16.65;11.13;;;2.90;99.90;;;;;;7632657;19;20771;-77
2022/11/14 08:19:03;;;;;;;19.88;11.32;;;2.90;99.90;;;;;;7630441;19;20076;-78
2022/11/14 08:21:54;;;;;;;19.02;12.25;;;3.00;99.90;;;;;;7613702;19;20090;-78
2022/11/14 08:24:45;;;;;;;19.17;11.80;;;3.00;99.90;;;;;;7620079;19;20014;-79
2022/11/14 08:27:35;;;;;;;19.73;12.00;;;3.20;99.90;;;;;;7620205;19;20025;-77
2022/11/14 08:30:27;;;;;;;16.52;11.77;;;3.20;99.90;;;;;;7619403;19;20631;-77
2022/11/14 08:33:18;;;;;;;17.02;11.02;;;3.30;99.90;;;;;;7633042;19;20018;-77
2022/11/14 08:36:10;;;;;;;17.80;12.20;;;3.40;99.90;;;;;;7635266;19;20716;-77
2022/11/14 08:39:00;;;;;;;18.20;11.80;;;3.40;99.90;;;;;;7636838;19;20019;-77
2022/11/14 08:41:51;;;;;;;17.48;12.55;;;3.50;99.90;;;;;;7637877;19;20018;-78
2022/11/14 08:44:42;;;;;;;16.92;11.32;;;3.60;99.90;;;;;;7633107;19;20126;-78
2022/11/14 08:47:41;;;;;;;19.10;11.90;;;3.60;99.90;;;;;;7637762;19;20025;-78
2022/11/14 08:50:31;;;;;;;17.40;12.90;;;3.80;99.90;;;;;;7633530;19;20018;-78
2022/11/14 08:53:22;;;;;;;16.10;11.50;;;3.80;99.90;;;;;;7637640;19;20022;-78
2022/11/14 08:56:13;;;;;;;17.20;11.88;;;3.90;99.90;;;;;;7636105;19;20023;-77
2022/11/14 08:59:04;;;;;;;18.13;12.43;;;3.90;99.90;;;;;;7633575;19;20438;-79
2022/11/14 09:01:54;;;;;;;18.85;13.20;;;4.10;99.90;;;;;;7639603;19;20022;-78
2022/11/14 09:04:45;;;;;;;22.65;12.90;;;4.20;99.90;;;;;;7638973;19;20010;-78
2022/11/14 09:07:36;;;;;;;20.88;14.27;;;4.30;99.90;;;;;;7635725;19;20044;-77
2022/11/14 09:10:27;;;;;;;18.67;12.55;;;4.30;99.90;;;;;;7635581;19;20093;-78
2022/11/14 09:13:18;;;;;;;16.70;12.05;;;4.40;99.90;;;;;;7634458;19;20071;-78
2022/11/14 09:16:08;;;;;;;19.30;13.18;;;4.50;99.90;;;;;;7640198;19;20851;-78
2022/11/14 09:18:59;;;;;;;23.92;14.07;;;4.50;99.90;;;;;;7615892;19;20047;-77
2022/11/14 09:21:50;;;;;;;25.10;15.57;;;4.60;99.90;;;;;;7617614;19;20941;-77
2022/11/14 09:24:40;;;;;;;22.92;15.10;;;4.80;99.90;;;;;;7623629;19;20897;-78
2022/11/14 09:27:31;;;;;;;22.58;14.82;;;4.90;99.90;;;;;;7625933;19;20060;-78
2022/11/14 09:30:22;;;;;;;19.15;12.88;;;5.00;99.90;;;;;;7627446;19;20014;-77
2022/11/14 09:33:13;;;;;;;21.27;13.43;;;5.20;99.90;;;;;;7631886;19;20054;-78
2022/11/14 09:36:06;;;;;;;22.00;12.63;;;5.50;99.90;;;;;;7630767;19;20019;-78
2022/11/14 09:38:57;;;;;;;24.87;12.63;;;5.70;99.90;;;;;;7622447;19;20029;-77
2022/11/14 09:41:56;;;;;;;20.02;12.23;;;6.00;99.90;;;;;;7623445;19;20022;-76
2022/11/14 09:44:58;;;;;;;19.52;12.05;;;6.10;99.90;;;;;;7613497;19;20006;-77
2022/11/14 09:47:54;;;;;;;16.80;11.73;;;6.40;99.90;;;;;;7628020;19;20971;-77
2022/11/14 09:51:17;;;;;;;16.90;11.27;;;6.50;99.90;;;;;;7596767;19;20010;-77
2022/11/14 09:54:27;;;;;;;20.70;13.00;;;6.60;99.90;;;;;;7610441;19;20014;-77
2022/11/14 09:57:19;;;;;;;26.83;19.27;;;6.70;99.90;;;;;;7605482;19;20067;-77
2022/11/14 10:00:22;;;;;;;19.05;13.55;;;6.90;99.90;;;;;;7629299;19;20024;-77
2022/11/14 10:03:29;;;;;;;19.88;11.90;;;7.00;99.90;;;;;;7631794;19;20019;-77
2022/11/14 10:06:23;;;;;;;22.45;13.70;;;7.20;99.90;;;;;;7634725;19;20011;-78
2022/11/14 10:09:29;;;;;;;22.67;12.07;;;7.20;99.90;;;;;;7638137;19;20138;-77
2022/11/14 10:12:39;;;;;;;18.80;12.07;;;7.30;99.90;;;;;;7631788;19;20029;-77
2022/11/14 10:15:48;;;;;;;19.88;11.40;;;7.50;99.90;;;;;;7639134;19;20018;-79
2022/11/14 10:18:48;;;;;;;16.50;10.82;;;7.60;99.90;;;;;;7637482;19;20015;-78
2022/11/14 10:22:03;;;;;;;16.35;9.68;;;7.70;99.90;;;;;;7629611;19;20010;-78
2022/11/14 10:24:54;;;;;;;13.82;9.15;;;7.90;99.90;;;;;;7633600;19;20019;-78
2022/11/14 10:28:23;;;;;;;14.10;9.02;;;8.10;99.90;;;;;;7630876;19;20055;-78
2022/11/14 10:31:47;;;;;;;12.90;7.88;;;8.40;99.90;;;;;;7628280;19;20048;-77
2022/11/14 10:35:07;;;;;;;10.18;7.78;;;8.50;99.90;;;;;;7631071;19;20621;-77
2022/11/14 10:38:23;;;;;;;12.40;8.18;;;8.70;99.90;;;;;;7624475;19;20010;-78
2022/11/14 10:41:15;;;;;;;8.73;6.40;;;8.80;99.90;;;;;;7611330;19;20459;-78
2022/11/14 10:44:33;;;;;;;13.45;7.60;;;9.00;99.90;;;;;;7600583;19;20420;-78
2022/11/14 10:47:26;;;;;;;12.13;7.70;;;9.20;99.90;;;;;;7614165;19;19999;-77
2022/11/14 10:50:32;;;;;;;15.45;8.00;;;9.30;99.90;;;;;;7601169;19;20049;-78
2022/11/14 10:53:35;;;;;;;12.85;7.97;;;9.50;99.90;;;;;;7601021;19;20026;-77
2022/11/14 10:56:26;;;;;;;10.55;7.22;;;9.80;99.90;;;;;;7622644;19;20034;-77
2022/11/14 10:59:18;;;;;;;11.45;6.85;;;9.90;99.90;;;;;;7614366;19;20026;-77
2022/11/14 11:02:10;;;;;;;11.95;6.97;;;10.00;99.90;;;;;;7600824;19;20830;-77
2022/11/14 11:05:14;;;;;;;12.00;6.95;;;10.20;99.90;;;;;;7608190;19;20033;-76
2022/11/14 11:11:50;;;;;;;14.90;6.20;;;10.40;99.90;;;;;;7627658;19;20022;-79
2022/11/14 11:14:41;;;;;;;9.88;6.97;;;10.70;99.90;;;;;;7621684;19;20313;-78
2022/11/14 11:17:33;;;;;;;10.20;6.18;;;10.90;99.90;;;;;;7620526;19;20006;-78
2022/11/14 11:20:34;;;;;;;13.73;6.85;;;11.10;99.90;;;;;;7591060;19;20110;-78
2022/11/14 11:23:26;;;;;;;11.80;7.22;;;11.40;99.90;;;;;;7608679;19;20018;-77
2022/11/14 11:26:17;;;;;;;13.07;7.15;;;12.40;99.90;;;;;;7612272;19;20035;-78
2022/11/14 11:29:10;;;;;;;11.90;6.95;;;12.80;99.70;;;;;;7591122;19;21324;-77
2022/11/14 11:32:01;;;;;;;12.23;7.00;;;13.80;97.80;;;;;;7598400;19;20021;-78
2022/11/14 11:34:52;;;;;;;9.05;7.15;;;14.50;95.00;;;;;;7603005;19;20282;-78
2022/11/14 11:37:53;;;;;;;10.98;7.97;;;17.90;88.60;;;;;;7598661;19;20010;-77
2022/11/14 11:40:47;;;;;;;15.35;6.82;;;21.30;74.50;;;;;;7599572;19;20963;-79
2022/11/14 11:43:46;;;;;;;11.77;7.35;;;24.00;61.40;;;;;;7613233;19;20015;-77
2022/11/14 11:47:00;;;;;;;9.30;7.00;;;25.00;55.50;;;;;;7579713;19;20018;-78
2022/11/14 11:49:52;;;;;;;12.30;7.00;;;25.40;51.60;;;;;;7571179;19;20646;-78
2022/11/14 11:52:44;;;;;;;12.40;7.93;;;24.90;52.10;;;;;;7586555;19;20038;-78
2022/11/14 11:55:45;;;;;;;10.82;7.90;;;25.00;51.90;;;;;;7596362;19;20022;-77
2022/11/14 11:58:46;;;;;;;15.05;8.32;;;25.40;52.20;;;;;;7591889;19;20037;-78
2022/11/14 12:01:37;;;;;;;16.08;9.55;;;23.10;53.70;;;;;;7600006;19;20011;-76
2022/11/14 12:04:29;;;;;;;15.00;10.77;;;20.70;58.40;;;;;;7592166;19;20011;-78
2022/11/14 12:07:41;;;;;;;20.58;12.88;;;18.20;64.10;;;;;;7614157;19;20109;-78
2022/11/14 12:10:36;;;;;;;20.05;13.77;;;16.10;70.90;;;;;;7597759;19;20014;-78
2022/11/14 12:13:53;;;;;;;18.98;13.60;;;14.80;75.10;;;;;;7592751;19;20030;-77
2022/11/14 12:17:09;;;;;;;25.85;14.98;;;14.10;78.20;;;;;;7594314;19;20025;-78
2022/11/14 12:20:25;;;;;;;26.40;15.70;;;13.80;78.90;;;;;;7615977;19;20017;-76
2022/11/14 12:23:30;;;;;;;26.02;14.77;;;13.90;77.30;;;;;;7598111;19;21042;-77
2022/11/14 12:26:59;;;;;;;19.75;13.93;;;13.50;79.10;;;;;;7603350;19;20039;-77
2022/11/14 12:29:59;;;;;;;19.63;13.35;;;13.00;79.40;;;;;;7599910;19;20094;-77
2022/11/14 12:33:16;;;;;;;18.35;11.90;;;13.20;80.90;;;;;;7583883;19;20019;-78
2022/11/14 12:36:11;;;;;;;16.27;12.25;;;13.60;78.40;;;;;;7600630;19;20007;-77
2022/11/14 12:39:02;;;;;;;21.48;11.15;;;15.40;74.60;;;;;;7606654;19;20024;-77
2022/11/14 12:42:04;;;;;;;13.02;9.30;;;16.80;68.90;;;;;;7602996;19;20017;-78
2022/11/14 12:44:55;;;;;;;12.35;9.68;;;15.80;69.80;;;;;;7597838;19;20015;-77
2022/11/14 12:48:14;;;;;;;13.25;9.82;;;14.90;73.00;;;;;;7566751;19;20018;-77
2022/11/14 12:51:24;;;;;;;15.13;9.63;;;14.30;75.00;;;;;;7551660;19;20029;-76
2022/11/14 12:54:44;;;;;;;10.82;8.30;;;13.80;76.10;;;;;;7588066;19;20011;-78
2022/11/14 12:57:49;;;;;;;13.07;8.20;;;13.30;77.10;;;;;;7575681;19;20021;-77
2022/11/14 13:00:45;;;;;;;12.20;8.57;;;13.10;78.00;;;;;;7598979;19;20027;-77
2022/11/14 13:03:42;;;;;;;9.10;7.20;;;13.80;77.20;;;;;;7594435;19;20031;-76
2022/11/14 13:06:44;;;;;;;12.65;8.93;;;13.80;75.80;;;;;;7575589;19;20018;-77
2022/11/14 13:09:52;;;;;;;16.42;7.60;;;14.90;72.90;;;;;;7597528;19;21185;-78
2022/11/14 13:22:55;;;;;;;11.95;7.80;;;13.50;77.20;;;;;;7615560;19;20115;-77
2022/11/14 13:25:45;;;;;;;11.43;7.90;;;14.20;76.20;;;;;;7605011;19;20018;-78
2022/11/14 13:28:49;;;;;;;10.65;7.43;;;14.50;73.80;;;;;;7608089;19;20015;-78
2022/11/14 13:31:43;;;;;;;13.32;7.90;;;14.00;76.00;;;;;;7611870;19;20010;-78
2022/11/14 13:34:51;;;;;;;12.52;7.40;;;13.50;77.40;;;;;;7606073;19;20014;-79
2022/11/14 13:38:12;;;;;;;9.15;7.07;;;13.10;79.00;;;;;;7606686;19;20634;-76
2022/11/14 13:41:14;;;;;;;10.52;7.22;;;12.90;80.00;;;;;;7609548;19;20036;-77
2022/11/14 13:44:36;;;;;;;10.05;6.80;;;12.60;80.40;;;;;;7609979;19;20011;-79
2022/11/14 13:48:04;;;;;;;11.27;7.00;;;12.50;81.40;;;;;;7606381;19;20006;-79
2022/11/14 13:51:00;;;;;;;10.30;6.70;;;12.40;82.10;;;;;;7614571;19;20022;-78
2022/11/14 13:54:15;;;;;;;9.48;6.82;;;12.50;83.20;;;;;;7602000;19;20014;-77
2022/11/14 13:57:32;;;;;;;11.48;7.10;;;12.50;83.70;;;;;;7616495;19;20007;-76
2022/11/14 14:00:23;;;;;;;10.45;7.22;;;12.40;84.40;;;;;;7592327;19;20010;-77
2022/11/14 14:03:25;;;;;;;11.70;6.82;;;12.30;84.60;;;;;;7591569;19;20029;-77
2022/11/14 14:06:16;;;;;;;9.57;7.53;;;12.40;85.10;;;;;;7561346;19;20049;-77
2022/11/14 14:09:38;;;;;;;13.13;7.78;;;14.30;82.60;;;;;;7565478;19;20014;-81
2022/11/14 14:12:41;;;;;;;12.98;7.47;;;16.80;72.10;;;;;;7578036;19;20027;-77
2022/11/14 14:16:05;;;;;;;12.05;7.20;;;15.80;72.10;;;;;;7570412;19;20019;-77
2022/11/14 14:19:16;;;;;;;17.38;8.50;;;16.00;74.30;;;;;;7569748;19;20296;-78
2022/11/14 14:22:20;;;;;;;16.25;7.82;;;19.10;66.00;;;;;;7559219;19;20510;-79
2022/11/14 14:25:11;;;;;;;14.77;8.32;;;20.30;61.00;;;;;;7581508;19;20883;-78
2022/11/14 14:28:14;;;;;;;11.70;8.35;;;21.10;58.20;;;;;;7576030;19;22280;-78
2022/11/14 14:31:10;;;;;;;9.93;7.40;;;20.90;58.40;;;;;;7563873;19;20113;-77
2022/11/14 14:34:21;;;;;;;10.32;8.05;;;19.90;58.90;;;;;;7581715;19;20037;-78
2022/11/14 14:37:51;;;;;;;10.82;8.45;;;17.50;65.00;;;;;;7591611;19;20014;-80
2022/11/14 14:40:54;;;;;;;15.23;8.63;;;15.90;70.60;;;;;;7578220;19;20023;-77
2022/11/14 14:43:54;;;;;;;12.90;8.07;;;16.10;71.90;;;;;;7558142;19;20019;-76
2022/11/14 14:46:44;;;;;;;11.75;8.32;;;14.90;74.20;;;;;;7579455;19;20031;-75
2022/11/14 14:49:36;;;;;;;10.60;8.30;;;15.90;72.70;;;;;;7570115;19;20090;-76
2022/11/14 14:52:37;;;;;;;20.42;12.00;;;15.10;74.00;;;;;;7598171;19;20014;-76
2022/11/14 14:55:31;;;;;;;15.93;9.55;;;14.20;76.50;;;;;;7548074;19;20014;-76
2022/11/14 14:58:22;;;;;;;;;;;13.40;79.70;;;;;;7577107;19;20109;-78
2022/11/14 15:01:17;;;;;;;18.08;9.15;;;12.60;83.10;;;;;;7605828;19;19929;-76
2022/11/14 15:04:13;;;;;;;16.73;9.15;;;12.10;85.70;;;;;;7597768;19;20458;-77
2022/11/14 15:07:04;;;;;;;15.98;9.02;;;11.70;87.80;;;;;;7601634;19;20050;-78
2022/11/14 15:10:00;;;;;;;13.35;9.40;;;11.30;90.00;;;;;;7611469;19;20042;-76
2022/11/14 15:12:52;;;;;;;16.23;9.15;;;11.10;91.20;;;;;;7597472;19;20037;-77